sensor_id;sensor_type;location;lat;lon;timestamp;temperature;humidity
21214;DHT22;10764;50.850;2.904;2022-07-04T00:00:16;23.30;52.70
21214;DHT22;10764;50.850;2.904;2022-07-04T00:02:45;23.20;52.50
21214;DHT22;10764;50.850;2.904;2022-07-04T00:05:13;23.00;52.60
21214;DHT22;10764;50.850;2.904;2022-07-04T00:07:42;23.10;52.70
21214;DHT22;10764;50.850;2.904;2022-07-04T00:10:15;24.80;53.60
21214;DHT22;10764;50.850;2.904;2022-07-04T00:12:42;23.00;52.60
21214;DHT22;10764;50.850;2.904;2022-07-04T00:15:11;23.10;52.80
21214;DHT22;10764;50.850;2.904;2022-07-04T00:17:39;23.10;52.70
21214;DHT22;10764;50.850;2.904;2022-07-04T00:20:08;23.30;53.10
21214;DHT22;10764;50.850;2.904;2022-07-04T00:22:35;23.30;51.90
21214;DHT22;10764;50.850;2.904;2022-07-04T00:25:03;23.00;52.80
21214;DHT22;10764;50.850;2.904;2022-07-04T00:27:30;22.90;52.50
21214;DHT22;10764;50.850;2.904;2022-07-04T00:29:58;22.90;52.70
21214;DHT22;10764;50.850;2.904;2022-07-04T00:32:25;22.80;52.60
21214;DHT22;10764;50.850;2.904;2022-07-04T00:34:52;22.70;52.60
21214;DHT22;10764;50.850;2.904;2022-07-04T00:37:18;22.90;53.10
21214;DHT22;10764;50.850;2.904;2022-07-04T00:39:45;22.60;53.50
21214;DHT22;10764;50.850;2.904;2022-07-04T00:42:12;23.10;53.30
21214;DHT22;10764;50.850;2.904;2022-07-04T00:44:40;22.60;54.10
21214;DHT22;10764;50.850;2.904;2022-07-04T00:47:07;22.70;53.40
21214;DHT22;10764;50.850;2.904;2022-07-04T00:49:34;22.70;53.50
21214;DHT22;10764;50.850;2.904;2022-07-04T00:52:02;24.20;53.80
21214;DHT22;10764;50.850;2.904;2022-07-04T00:54:31;23.00;52.80
21214;DHT22;10764;50.850;2.904;2022-07-04T00:56:59;22.90;53.00
21214;DHT22;10764;50.850;2.904;2022-07-04T00:59:27;23.40;53.30
21214;DHT22;10764;50.850;2.904;2022-07-04T01:01:54;22.80;53.20
21214;DHT22;10764;50.850;2.904;2022-07-04T01:04:21;22.80;53.40
21214;DHT22;10764;50.850;2.904;2022-07-04T01:06:48;22.80;53.00
21214;DHT22;10764;50.850;2.904;2022-07-04T01:09:16;23.70;53.10
21214;DHT22;10764;50.850;2.904;2022-07-04T01:11:43;22.80;53.30
21214;DHT22;10764;50.850;2.904;2022-07-04T01:14:10;22.80;53.20
21214;DHT22;10764;50.850;2.904;2022-07-04T01:16:37;23.00;53.60
21214;DHT22;10764;50.850;2.904;2022-07-04T01:19:04;22.90;53.50
21214;DHT22;10764;50.850;2.904;2022-07-04T01:21:32;23.40;53.60
21214;DHT22;10764;50.850;2.904;2022-07-04T01:23:59;23.10;53.00
21214;DHT22;10764;50.850;2.904;2022-07-04T01:26:27;22.90;53.20
21214;DHT22;10764;50.850;2.904;2022-07-04T01:28:55;23.90;53.40
21214;DHT22;10764;50.850;2.904;2022-07-04T01:31:22;23.00;53.60
21214;DHT22;10764;50.850;2.904;2022-07-04T01:33:49;23.00;53.10
21214;DHT22;10764;50.850;2.904;2022-07-04T01:36:16;23.00;53.50
21214;DHT22;10764;50.850;2.904;2022-07-04T01:38:42;23.60;53.60
21214;DHT22;10764;50.850;2.904;2022-07-04T01:41:09;22.90;53.20
21214;DHT22;10764;50.850;2.904;2022-07-04T01:43:36;23.00;53.30
21214;DHT22;10764;50.850;2.904;2022-07-04T01:46:03;23.20;53.70
21214;DHT22;10764;50.850;2.904;2022-07-04T01:48:30;24.10;54.10
21214;DHT22;10764;50.850;2.904;2022-07-04T01:50:57;22.90;53.50
21214;DHT22;10764;50.850;2.904;2022-07-04T01:53:23;23.10;53.70
21214;DHT22;10764;50.850;2.904;2022-07-04T01:55:50;23.20;53.60
21214;DHT22;10764;50.850;2.904;2022-07-04T01:58:17;22.90;53.20
21214;DHT22;10764;50.850;2.904;2022-07-04T02:00:44;23.30;53.70
21214;DHT22;10764;50.850;2.904;2022-07-04T02:03:29;22.90;50.20
21214;DHT22;10764;50.850;2.904;2022-07-04T02:05:57;23.10;53.30
21214;DHT22;10764;50.850;2.904;2022-07-04T02:08:24;22.90;53.70
21214;DHT22;10764;50.850;2.904;2022-07-04T02:11:11;23.00;53.50
21214;DHT22;10764;50.850;2.904;2022-07-04T02:13:37;23.70;54.20
21214;DHT22;10764;50.850;2.904;2022-07-04T02:16:04;23.00;53.90
21214;DHT22;10764;50.850;2.904;2022-07-04T02:18:31;23.00;53.90
21214;DHT22;10764;50.850;2.904;2022-07-04T02:20:58;23.10;53.80
21214;DHT22;10764;50.850;2.904;2022-07-04T02:23:25;22.90;53.80
21214;DHT22;10764;50.850;2.904;2022-07-04T02:25:52;23.00;53.70
21214;DHT22;10764;50.850;2.904;2022-07-04T02:28:18;22.90;53.70
21214;DHT22;10764;50.850;2.904;2022-07-04T02:30:45;23.00;54.00
21214;DHT22;10764;50.850;2.904;2022-07-04T02:33:12;23.00;53.90
21214;DHT22;10764;50.850;2.904;2022-07-04T02:35:40;23.20;54.00
21214;DHT22;10764;50.850;2.904;2022-07-04T02:38:07;23.10;54.80
21214;DHT22;10764;50.850;2.904;2022-07-04T02:40:34;23.00;53.90
21214;DHT22;10764;50.850;2.904;2022-07-04T02:43:00;23.00;54.10
21214;DHT22;10764;50.850;2.904;2022-07-04T02:45:27;23.50;54.40
21214;DHT22;10764;50.850;2.904;2022-07-04T02:47:54;23.00;54.00
21214;DHT22;10764;50.850;2.904;2022-07-04T02:50:21;23.00;54.10
21214;DHT22;10764;50.850;2.904;2022-07-04T02:52:48;22.80;54.10
21214;DHT22;10764;50.850;2.904;2022-07-04T02:55:15;23.20;54.10
21214;DHT22;10764;50.850;2.904;2022-07-04T02:57:42;23.20;54.40
21214;DHT22;10764;50.850;2.904;2022-07-04T03:00:09;23.00;54.30
21214;DHT22;10764;50.850;2.904;2022-07-04T03:02:36;23.10;52.30
21214;DHT22;10764;50.850;2.904;2022-07-04T03:05:04;23.00;54.20
21214;DHT22;10764;50.850;2.904;2022-07-04T03:07:31;23.10;52.50
21214;DHT22;10764;50.850;2.904;2022-07-04T03:09:57;23.00;54.40
21214;DHT22;10764;50.850;2.904;2022-07-04T03:12:24;23.00;54.40
21214;DHT22;10764;50.850;2.904;2022-07-04T03:14:51;22.90;54.20
21214;DHT22;10764;50.850;2.904;2022-07-04T03:17:20;22.90;54.20
21214;DHT22;10764;50.850;2.904;2022-07-04T03:19:47;23.90;54.90
21214;DHT22;10764;50.850;2.904;2022-07-04T03:22:14;23.00;54.40
21214;DHT22;10764;50.850;2.904;2022-07-04T03:24:41;23.00;54.50
21214;DHT22;10764;50.850;2.904;2022-07-04T03:27:08;23.00;54.80
21214;DHT22;10764;50.850;2.904;2022-07-04T03:29:35;23.30;54.60
21214;DHT22;10764;50.850;2.904;2022-07-04T03:32:02;23.70;54.80
21214;DHT22;10764;50.850;2.904;2022-07-04T03:34:29;23.10;53.60
21214;DHT22;10764;50.850;2.904;2022-07-04T03:36:56;22.90;54.40
21214;DHT22;10764;50.850;2.904;2022-07-04T03:39:23;23.30;54.50
21214;DHT22;10764;50.850;2.904;2022-07-04T03:41:50;23.10;54.50
21214;DHT22;10764;50.850;2.904;2022-07-04T03:44:17;25.00;55.60
21214;DHT22;10764;50.850;2.904;2022-07-04T03:46:43;23.40;54.50
21214;DHT22;10764;50.850;2.904;2022-07-04T03:49:10;23.20;55.00
21214;DHT22;10764;50.850;2.904;2022-07-04T03:51:37;23.00;54.80
21214;DHT22;10764;50.850;2.904;2022-07-04T03:54:04;23.20;54.80
21214;DHT22;10764;50.850;2.904;2022-07-04T03:56:31;23.00;54.90
21214;DHT22;10764;50.850;2.904;2022-07-04T03:58:58;23.20;55.00
21214;DHT22;10764;50.850;2.904;2022-07-04T04:01:25;22.90;54.40
21214;DHT22;10764;50.850;2.904;2022-07-04T04:03:52;23.10;54.90
21214;DHT22;10764;50.850;2.904;2022-07-04T04:06:37;23.60;51.60
21214;DHT22;10764;50.850;2.904;2022-07-04T04:09:04;23.70;55.10
21214;DHT22;10764;50.850;2.904;2022-07-04T04:11:36;23.00;55.80
21214;DHT22;10764;50.850;2.904;2022-07-04T04:14:02;23.00;54.70
21214;DHT22;10764;50.850;2.904;2022-07-04T04:16:29;23.80;55.10
21214;DHT22;10764;50.850;2.904;2022-07-04T04:18:56;23.10;55.10
21214;DHT22;10764;50.850;2.904;2022-07-04T04:21:24;22.90;54.80
21214;DHT22;10764;50.850;2.904;2022-07-04T04:23:51;23.00;54.70
21214;DHT22;10764;50.850;2.904;2022-07-04T04:26:18;23.20;55.20
21214;DHT22;10764;50.850;2.904;2022-07-04T04:28:45;23.30;55.30
21214;DHT22;10764;50.850;2.904;2022-07-04T04:31:12;23.10;55.50
21214;DHT22;10764;50.850;2.904;2022-07-04T04:33:41;23.80;55.40
21214;DHT22;10764;50.850;2.904;2022-07-04T04:36:08;23.40;55.70
21214;DHT22;10764;50.850;2.904;2022-07-04T04:38:34;23.00;55.60
21214;DHT22;10764;50.850;2.904;2022-07-04T04:41:02;23.10;55.50
21214;DHT22;10764;50.850;2.904;2022-07-04T04:43:29;23.00;55.50
21214;DHT22;10764;50.850;2.904;2022-07-04T04:45:55;23.00;56.00
21214;DHT22;10764;50.850;2.904;2022-07-04T04:48:22;23.00;54.90
21214;DHT22;10764;50.850;2.904;2022-07-04T04:50:49;23.00;54.90
21214;DHT22;10764;50.850;2.904;2022-07-04T04:53:16;23.10;55.90
21214;DHT22;10764;50.850;2.904;2022-07-04T04:55:43;23.20;56.20
21214;DHT22;10764;50.850;2.904;2022-07-04T04:58:10;23.10;56.20
21214;DHT22;10764;50.850;2.904;2022-07-04T05:00:37;22.90;57.00
21214;DHT22;10764;50.850;2.904;2022-07-04T05:03:04;23.00;56.10
21214;DHT22;10764;50.850;2.904;2022-07-04T05:05:31;23.20;56.00
21214;DHT22;10764;50.850;2.904;2022-07-04T05:07:57;23.60;56.70
21214;DHT22;10764;50.850;2.904;2022-07-04T05:10:24;23.40;56.50
21214;DHT22;10764;50.850;2.904;2022-07-04T05:12:51;23.00;55.70
21214;DHT22;10764;50.850;2.904;2022-07-04T05:15:18;23.50;56.70
21214;DHT22;10764;50.850;2.904;2022-07-04T05:17:45;23.30;56.70
21214;DHT22;10764;50.850;2.904;2022-07-04T05:20:12;23.60;56.60
21214;DHT22;10764;50.850;2.904;2022-07-04T05:22:39;23.20;56.70
21214;DHT22;10764;50.850;2.904;2022-07-04T05:25:06;23.20;56.60
21214;DHT22;10764;50.850;2.904;2022-07-04T05:27:33;23.20;55.70
21214;DHT22;10764;50.850;2.904;2022-07-04T05:30:00;23.20;56.90
21214;DHT22;10764;50.850;2.904;2022-07-04T05:32:27;23.20;56.70
21214;DHT22;10764;50.850;2.904;2022-07-04T05:34:54;23.20;56.70
21214;DHT22;10764;50.850;2.904;2022-07-04T05:37:21;23.10;56.40
21214;DHT22;10764;50.850;2.904;2022-07-04T05:39:48;23.40;56.90
21214;DHT22;10764;50.850;2.904;2022-07-04T05:42:16;23.10;56.80
21214;DHT22;10764;50.850;2.904;2022-07-04T05:44:43;23.30;56.80
21214;DHT22;10764;50.850;2.904;2022-07-04T05:47:11;23.10;56.80
21214;DHT22;10764;50.850;2.904;2022-07-04T05:49:38;23.20;57.10
21214;DHT22;10764;50.850;2.904;2022-07-04T05:52:05;23.20;56.60
21214;DHT22;10764;50.850;2.904;2022-07-04T05:54:32;23.10;56.60
21214;DHT22;10764;50.850;2.904;2022-07-04T05:56:59;23.10;56.80
21214;DHT22;10764;50.850;2.904;2022-07-04T05:59:26;23.90;57.40
21214;DHT22;10764;50.850;2.904;2022-07-04T06:01:53;25.00;57.80
21214;DHT22;10764;50.850;2.904;2022-07-04T06:04:20;23.10;57.30
21214;DHT22;10764;50.850;2.904;2022-07-04T06:06:47;23.30;57.10
21214;DHT22;10764;50.850;2.904;2022-07-04T06:09:14;23.30;57.10
21214;DHT22;10764;50.850;2.904;2022-07-04T06:11:44;24.40;58.10
21214;DHT22;10764;50.850;2.904;2022-07-04T06:14:11;23.30;57.30
21214;DHT22;10764;50.850;2.904;2022-07-04T06:16:38;23.40;57.50
21214;DHT22;10764;50.850;2.904;2022-07-04T06:19:05;23.30;57.30
21214;DHT22;10764;50.850;2.904;2022-07-04T06:21:32;23.60;56.10
21214;DHT22;10764;50.850;2.904;2022-07-04T06:23:59;23.30;57.60
21214;DHT22;10764;50.850;2.904;2022-07-04T06:26:26;23.20;56.50
21214;DHT22;10764;50.850;2.904;2022-07-04T06:28:53;23.20;57.40
21214;DHT22;10764;50.850;2.904;2022-07-04T06:31:21;23.20;57.70
21214;DHT22;10764;50.850;2.904;2022-07-04T06:33:48;25.80;58.30
21214;DHT22;10764;50.850;2.904;2022-07-04T06:36:33;23.40;53.20
21214;DHT22;10764;50.850;2.904;2022-07-04T06:39:01;23.50;57.50
21214;DHT22;10764;50.850;2.904;2022-07-04T06:41:27;23.30;58.00
21214;DHT22;10764;50.850;2.904;2022-07-04T06:43:54;23.50;58.20
21214;DHT22;10764;50.850;2.904;2022-07-04T06:46:21;23.30;57.70
21214;DHT22;10764;50.850;2.904;2022-07-04T06:48:48;23.30;58.20
21214;DHT22;10764;50.850;2.904;2022-07-04T06:51:15;24.30;58.70
21214;DHT22;10764;50.850;2.904;2022-07-04T06:53:43;23.10;57.80
21214;DHT22;10764;50.850;2.904;2022-07-04T06:56:12;23.30;57.90
21214;DHT22;10764;50.850;2.904;2022-07-04T06:58:39;23.30;58.60
21214;DHT22;10764;50.850;2.904;2022-07-04T07:01:06;23.60;58.90
21214;DHT22;10764;50.850;2.904;2022-07-04T07:03:33;23.20;58.40
21214;DHT22;10764;50.850;2.904;2022-07-04T07:06:01;23.30;59.60
21214;DHT22;10764;50.850;2.904;2022-07-04T07:08:31;23.10;59.90
21214;DHT22;10764;50.850;2.904;2022-07-04T07:10:58;23.60;60.10
21214;DHT22;10764;50.850;2.904;2022-07-04T07:13:41;23.30;59.50
21214;DHT22;10764;50.850;2.904;2022-07-04T07:16:08;24.00;61.70
21214;DHT22;10764;50.850;2.904;2022-07-04T07:18:35;23.20;62.20
21214;DHT22;10764;50.850;2.904;2022-07-04T07:21:02;23.00;63.00
21214;DHT22;10764;50.850;2.904;2022-07-04T07:23:29;22.90;62.60
21214;DHT22;10764;50.850;2.904;2022-07-04T07:25:56;23.10;63.00
21214;DHT22;10764;50.850;2.904;2022-07-04T07:28:23;22.80;62.90
21214;DHT22;10764;50.850;2.904;2022-07-04T07:30:50;23.10;62.80
21214;DHT22;10764;50.850;2.904;2022-07-04T07:33:17;23.00;62.00
21214;DHT22;10764;50.850;2.904;2022-07-04T07:35:44;23.10;61.60
21214;DHT22;10764;50.850;2.904;2022-07-04T07:38:11;24.00;63.30
21214;DHT22;10764;50.850;2.904;2022-07-04T07:40:38;23.70;62.70
21214;DHT22;10764;50.850;2.904;2022-07-04T07:43:06;23.40;62.40
21214;DHT22;10764;50.850;2.904;2022-07-04T07:45:33;23.00;62.00
21214;DHT22;10764;50.850;2.904;2022-07-04T07:48:00;23.10;62.20
21214;DHT22;10764;50.850;2.904;2022-07-04T07:50:27;23.00;62.20
21214;DHT22;10764;50.850;2.904;2022-07-04T07:52:54;24.40;62.90
21214;DHT22;10764;50.850;2.904;2022-07-04T07:55:20;23.40;62.60
21214;DHT22;10764;50.850;2.904;2022-07-04T07:57:47;23.10;61.90
21214;DHT22;10764;50.850;2.904;2022-07-04T08:00:15;23.10;62.00
21214;DHT22;10764;50.850;2.904;2022-07-04T08:03:02;23.30;60.80
21214;DHT22;10764;50.850;2.904;2022-07-04T08:05:48;23.40;58.40
21214;DHT22;10764;50.850;2.904;2022-07-04T08:08:15;24.50;61.90
21214;DHT22;10764;50.850;2.904;2022-07-04T08:10:42;23.10;61.40
21214;DHT22;10764;50.850;2.904;2022-07-04T08:13:09;23.10;61.60
21214;DHT22;10764;50.850;2.904;2022-07-04T08:15:36;23.30;61.30
21214;DHT22;10764;50.850;2.904;2022-07-04T08:18:03;23.20;61.50
21214;DHT22;10764;50.850;2.904;2022-07-04T08:20:30;24.20;63.10
21214;DHT22;10764;50.850;2.904;2022-07-04T08:23:15;23.10;60.90
21214;DHT22;10764;50.850;2.904;2022-07-04T08:25:42;23.20;61.00
21214;DHT22;10764;50.850;2.904;2022-07-04T08:28:09;23.20;61.10
21214;DHT22;10764;50.850;2.904;2022-07-04T08:30:36;23.60;61.50
21214;DHT22;10764;50.850;2.904;2022-07-04T08:33:03;23.20;60.70
21214;DHT22;10764;50.850;2.904;2022-07-04T08:35:30;23.40;60.90
21214;DHT22;10764;50.850;2.904;2022-07-04T08:37:57;23.30;61.00
21214;DHT22;10764;50.850;2.904;2022-07-04T08:40:26;23.30;60.80
21214;DHT22;10764;50.850;2.904;2022-07-04T08:42:53;23.30;60.50
21214;DHT22;10764;50.850;2.904;2022-07-04T08:45:27;23.30;60.60
21214;DHT22;10764;50.850;2.904;2022-07-04T08:48:00;24.60;61.20
21214;DHT22;10764;50.850;2.904;2022-07-04T08:50:31;23.30;60.30
21214;DHT22;10764;50.850;2.904;2022-07-04T08:53:02;23.20;60.30
21214;DHT22;10764;50.850;2.904;2022-07-04T08:55:29;24.00;60.80
21214;DHT22;10764;50.850;2.904;2022-07-04T08:58:15;23.30;60.20
21214;DHT22;10764;50.850;2.904;2022-07-04T09:01:04;23.40;60.50
21214;DHT22;10764;50.850;2.904;2022-07-04T09:03:31;23.20;60.40
21214;DHT22;10764;50.850;2.904;2022-07-04T09:05:59;23.30;60.20
21214;DHT22;10764;50.850;2.904;2022-07-04T09:08:27;23.10;60.00
21214;DHT22;10764;50.850;2.904;2022-07-04T09:10:54;23.50;60.80
21214;DHT22;10764;50.850;2.904;2022-07-04T09:13:21;23.20;60.40
21214;DHT22;10764;50.850;2.904;2022-07-04T09:15:50;23.40;60.40
21214;DHT22;10764;50.850;2.904;2022-07-04T09:18:37;23.30;60.10
21214;DHT22;10764;50.850;2.904;2022-07-04T09:21:08;23.20;59.90
21214;DHT22;10764;50.850;2.904;2022-07-04T09:23:41;23.30;59.90
21214;DHT22;10764;50.850;2.904;2022-07-04T09:28:39;23.30;58.10
21214;DHT22;10764;50.850;2.904;2022-07-04T09:33:57;23.30;56.10
21214;DHT22;10764;50.850;2.904;2022-07-04T09:36:26;23.30;59.70
21214;DHT22;10764;50.850;2.904;2022-07-04T09:39:11;23.30;59.50
21214;DHT22;10764;50.850;2.904;2022-07-04T09:41:52;23.50;56.00
21214;DHT22;10764;50.850;2.904;2022-07-04T09:44:20;23.50;59.60
21214;DHT22;10764;50.850;2.904;2022-07-04T09:46:47;23.30;59.50
21214;DHT22;10764;50.850;2.904;2022-07-04T09:49:14;23.30;59.70
21214;DHT22;10764;50.850;2.904;2022-07-04T09:51:49;23.20;59.20
21214;DHT22;10764;50.850;2.904;2022-07-04T09:54:27;23.60;55.70
21214;DHT22;10764;50.850;2.904;2022-07-04T09:57:00;23.90;59.60
21214;DHT22;10764;50.850;2.904;2022-07-04T09:59:28;23.30;59.40
21214;DHT22;10764;50.850;2.904;2022-07-04T10:02:09;23.40;59.30
21214;DHT22;10764;50.850;2.904;2022-07-04T10:04:45;23.20;59.10
21214;DHT22;10764;50.850;2.904;2022-07-04T10:07:36;23.40;59.40
21214;DHT22;10764;50.850;2.904;2022-07-04T10:12:54;23.50;56.00
21214;DHT22;10764;50.850;2.904;2022-07-04T10:15:22;23.30;59.20
21214;DHT22;10764;50.850;2.904;2022-07-04T10:17:49;23.40;59.30
21214;DHT22;10764;50.850;2.904;2022-07-04T10:20:16;23.60;59.10
21214;DHT22;10764;50.850;2.904;2022-07-04T10:22:44;23.40;59.00
21214;DHT22;10764;50.850;2.904;2022-07-04T10:25:10;23.20;59.30
21214;DHT22;10764;50.850;2.904;2022-07-04T10:27:38;23.80;59.20
21214;DHT22;10764;50.850;2.904;2022-07-04T10:30:08;23.70;58.80
21214;DHT22;10764;50.850;2.904;2022-07-04T10:32:37;23.30;58.50
21214;DHT22;10764;50.850;2.904;2022-07-04T10:35:05;23.20;58.50
21214;DHT22;10764;50.850;2.904;2022-07-04T10:37:58;23.30;58.30
21214;DHT22;10764;50.850;2.904;2022-07-04T10:48:52;24.10;58.50
21214;DHT22;10764;50.850;2.904;2022-07-04T10:51:49;23.30;58.50
21214;DHT22;10764;50.850;2.904;2022-07-04T10:56:49;25.20;59.30
21214;DHT22;10764;50.850;2.904;2022-07-04T11:04:52;23.30;58.50
21214;DHT22;10764;50.850;2.904;2022-07-04T11:13:02;23.30;58.30
21214;DHT22;10764;50.850;2.904;2022-07-04T11:18:10;23.40;57.90
21214;DHT22;10764;50.850;2.904;2022-07-04T11:20:42;23.30;54.10
21214;DHT22;10764;50.850;2.904;2022-07-04T11:23:11;23.90;58.20
21214;DHT22;10764;50.850;2.904;2022-07-04T11:25:39;23.20;57.90
21214;DHT22;10764;50.850;2.904;2022-07-04T11:28:23;23.20;57.80
21214;DHT22;10764;50.850;2.904;2022-07-04T11:31:08;23.40;54.10
21214;DHT22;10764;50.850;2.904;2022-07-04T11:33:36;23.30;57.90
21214;DHT22;10764;50.850;2.904;2022-07-04T11:36:11;23.30;57.90
21214;DHT22;10764;50.850;2.904;2022-07-04T11:38:59;23.20;53.90
21214;DHT22;10764;50.850;2.904;2022-07-04T11:44:14;23.40;54.40
21214;DHT22;10764;50.850;2.904;2022-07-04T11:52:11;23.40;57.70
21214;DHT22;10764;50.850;2.904;2022-07-04T11:54:43;23.50;58.10
21214;DHT22;10764;50.850;2.904;2022-07-04T11:57:27;23.30;57.70
21214;DHT22;10764;50.850;2.904;2022-07-04T12:00:00;23.40;57.70
21214;DHT22;10764;50.850;2.904;2022-07-04T12:02:28;23.30;53.70
21214;DHT22;10764;50.850;2.904;2022-07-04T12:04:56;23.30;57.70
21214;DHT22;10764;50.850;2.904;2022-07-04T12:07:27;23.30;57.70
21214;DHT22;10764;50.850;2.904;2022-07-04T12:09:55;23.40;57.60
21214;DHT22;10764;50.850;2.904;2022-07-04T12:12:23;23.40;57.60
21214;DHT22;10764;50.850;2.904;2022-07-04T12:15:06;23.30;57.90
21214;DHT22;10764;50.850;2.904;2022-07-04T12:17:34;23.50;56.90
21214;DHT22;10764;50.850;2.904;2022-07-04T12:20:15;23.20;57.50
21214;DHT22;10764;50.850;2.904;2022-07-04T12:22:53;23.40;53.70
21214;DHT22;10764;50.850;2.904;2022-07-04T12:25:30;23.40;57.50
21214;DHT22;10764;50.850;2.904;2022-07-04T12:28:00;23.50;57.60
21214;DHT22;10764;50.850;2.904;2022-07-04T12:30:33;23.30;57.40
21214;DHT22;10764;50.850;2.904;2022-07-04T12:33:05;23.30;53.50
21214;DHT22;10764;50.850;2.904;2022-07-04T12:40:57;23.80;57.50
21214;DHT22;10764;50.850;2.904;2022-07-04T12:43:26;23.40;53.50
21214;DHT22;10764;50.850;2.904;2022-07-04T12:46:32;25.00;58.10
21214;DHT22;10764;50.850;2.904;2022-07-04T12:49:16;23.30;57.30
21214;DHT22;10764;50.850;2.904;2022-07-04T12:51:44;24.60;58.70
21214;DHT22;10764;50.850;2.904;2022-07-04T12:54:11;23.20;57.40
21214;DHT22;10764;50.850;2.904;2022-07-04T12:56:43;23.30;57.60
21214;DHT22;10764;50.850;2.904;2022-07-04T12:59:19;23.40;53.40
21214;DHT22;10764;50.850;2.904;2022-07-04T13:01:46;23.30;57.20
21214;DHT22;10764;50.850;2.904;2022-07-04T13:04:14;25.00;58.10
21214;DHT22;10764;50.850;2.904;2022-07-04T13:06:42;23.30;57.30
21214;DHT22;10764;50.850;2.904;2022-07-04T13:09:09;23.50;57.70
21214;DHT22;10764;50.850;2.904;2022-07-04T13:11:36;23.30;57.90
21214;DHT22;10764;50.850;2.904;2022-07-04T13:14:23;23.40;56.10
21214;DHT22;10764;50.850;2.904;2022-07-04T13:16:50;23.30;57.80
21214;DHT22;10764;50.850;2.904;2022-07-04T13:19:16;23.50;57.80
21214;DHT22;10764;50.850;2.904;2022-07-04T13:21:44;23.40;57.80
21214;DHT22;10764;50.850;2.904;2022-07-04T13:24:12;23.70;57.90
21214;DHT22;10764;50.850;2.904;2022-07-04T13:26:39;23.20;57.80
21214;DHT22;10764;50.850;2.904;2022-07-04T13:29:09;23.40;57.90
21214;DHT22;10764;50.850;2.904;2022-07-04T13:31:38;23.80;58.00
21214;DHT22;10764;50.850;2.904;2022-07-04T13:34:06;23.30;58.00
21214;DHT22;10764;50.850;2.904;2022-07-04T13:36:32;23.30;58.00
21214;DHT22;10764;50.850;2.904;2022-07-04T13:38:59;23.20;57.80
21214;DHT22;10764;50.850;2.904;2022-07-04T13:41:33;23.30;58.40
21214;DHT22;10764;50.850;2.904;2022-07-04T13:44:03;23.00;58.00
21214;DHT22;10764;50.850;2.904;2022-07-04T13:46:30;23.20;57.40
21214;DHT22;10764;50.850;2.904;2022-07-04T13:49:03;23.30;58.10
21214;DHT22;10764;50.850;2.904;2022-07-04T13:51:39;23.40;58.00
21214;DHT22;10764;50.850;2.904;2022-07-04T13:54:08;23.30;57.80
21214;DHT22;10764;50.850;2.904;2022-07-04T13:56:35;23.40;58.10
21214;DHT22;10764;50.850;2.904;2022-07-04T13:59:02;23.30;57.90
21214;DHT22;10764;50.850;2.904;2022-07-04T14:01:29;23.90;58.20
21214;DHT22;10764;50.850;2.904;2022-07-04T14:03:56;23.30;58.00
21214;DHT22;10764;50.850;2.904;2022-07-04T14:06:24;23.40;58.30
21214;DHT22;10764;50.850;2.904;2022-07-04T14:08:50;23.40;57.90
21214;DHT22;10764;50.850;2.904;2022-07-04T14:11:17;23.30;57.60
21214;DHT22;10764;50.850;2.904;2022-07-04T14:13:44;23.90;58.00
21214;DHT22;10764;50.850;2.904;2022-07-04T14:16:11;23.80;57.80
21214;DHT22;10764;50.850;2.904;2022-07-04T14:18:40;23.30;57.70
21214;DHT22;10764;50.850;2.904;2022-07-04T14:21:07;23.30;57.70
21214;DHT22;10764;50.850;2.904;2022-07-04T14:23:34;23.30;56.80
21214;DHT22;10764;50.850;2.904;2022-07-04T14:26:13;23.50;54.40
21214;DHT22;10764;50.850;2.904;2022-07-04T14:28:42;23.30;53.40
21214;DHT22;10764;50.850;2.904;2022-07-04T14:31:11;23.60;57.30
21214;DHT22;10764;50.850;2.904;2022-07-04T14:33:39;23.30;57.40
21214;DHT22;10764;50.850;2.904;2022-07-04T14:36:06;23.30;57.20
21214;DHT22;10764;50.850;2.904;2022-07-04T14:38:34;23.40;56.70
21214;DHT22;10764;50.850;2.904;2022-07-04T14:41:02;23.30;57.40
21214;DHT22;10764;50.850;2.904;2022-07-04T14:43:42;23.50;57.10
21214;DHT22;10764;50.850;2.904;2022-07-04T14:46:10;23.20;53.50
21214;DHT22;10764;50.850;2.904;2022-07-04T14:48:37;23.60;57.40
21214;DHT22;10764;50.850;2.904;2022-07-04T14:51:04;23.30;57.60
21214;DHT22;10764;50.850;2.904;2022-07-04T14:53:32;23.60;57.60
21214;DHT22;10764;50.850;2.904;2022-07-04T14:55:59;23.90;58.70
21214;DHT22;10764;50.850;2.904;2022-07-04T14:58:26;25.20;58.60
21214;DHT22;10764;50.850;2.904;2022-07-04T15:00:53;23.80;57.20
21214;DHT22;10764;50.850;2.904;2022-07-04T15:03:21;23.40;57.70
21214;DHT22;10764;50.850;2.904;2022-07-04T15:05:48;23.50;57.00
21214;DHT22;10764;50.850;2.904;2022-07-04T15:08:16;23.40;57.10
21214;DHT22;10764;50.850;2.904;2022-07-04T15:10:42;23.40;57.40
21214;DHT22;10764;50.850;2.904;2022-07-04T15:13:25;23.40;57.50
21214;DHT22;10764;50.850;2.904;2022-07-04T15:15:52;23.50;57.40
21214;DHT22;10764;50.850;2.904;2022-07-04T15:18:40;24.60;57.90
21214;DHT22;10764;50.850;2.904;2022-07-04T15:21:07;23.40;57.50
21214;DHT22;10764;50.850;2.904;2022-07-04T15:23:53;23.30;56.00
21214;DHT22;10764;50.850;2.904;2022-07-04T15:26:40;23.40;54.10
21214;DHT22;10764;50.850;2.904;2022-07-04T15:29:08;23.30;57.10
21214;DHT22;10764;50.850;2.904;2022-07-04T15:31:40;23.40;57.20
21214;DHT22;10764;50.850;2.904;2022-07-04T15:34:08;23.30;56.90
21214;DHT22;10764;50.850;2.904;2022-07-04T15:36:35;23.30;57.10
21214;DHT22;10764;50.850;2.904;2022-07-04T15:39:13;23.60;57.30
21214;DHT22;10764;50.850;2.904;2022-07-04T15:41:41;23.00;56.60
21214;DHT22;10764;50.850;2.904;2022-07-04T15:44:08;23.20;56.80
21214;DHT22;10764;50.850;2.904;2022-07-04T15:46:35;24.30;57.20
21214;DHT22;10764;50.850;2.904;2022-07-04T15:49:23;23.60;57.20
21214;DHT22;10764;50.850;2.904;2022-07-04T15:51:50;23.50;56.90
21214;DHT22;10764;50.850;2.904;2022-07-04T15:54:17;23.30;56.50
21214;DHT22;10764;50.850;2.904;2022-07-04T15:56:44;23.10;55.80
21214;DHT22;10764;50.850;2.904;2022-07-04T15:59:11;23.10;55.50
21214;DHT22;10764;50.850;2.904;2022-07-04T16:01:40;23.30;54.80
21214;DHT22;10764;50.850;2.904;2022-07-04T16:04:07;23.20;54.70
21214;DHT22;10764;50.850;2.904;2022-07-04T16:06:34;22.80;53.80
21214;DHT22;10764;50.850;2.904;2022-07-04T16:09:02;22.80;53.70
21214;DHT22;10764;50.850;2.904;2022-07-04T16:11:28;23.20;52.80
21214;DHT22;10764;50.850;2.904;2022-07-04T16:13:55;22.60;52.00
21214;DHT22;10764;50.850;2.904;2022-07-04T16:16:24;22.40;52.40
21214;DHT22;10764;50.850;2.904;2022-07-04T16:18:51;23.40;52.70
21214;DHT22;10764;50.850;2.904;2022-07-04T16:21:18;24.10;53.40
21214;DHT22;10764;50.850;2.904;2022-07-04T16:23:45;22.60;52.40
21214;DHT22;10764;50.850;2.904;2022-07-04T16:26:12;23.40;52.40
21214;DHT22;10764;50.850;2.904;2022-07-04T16:28:39;22.50;51.30